Waleed Al-Juhani

Chief Scout - Al-Ahli
25 Sep 2027
Saturday
Process

Personality

Adaptability (4) Ambition (1) Controversy (1) Loyalty (5) Pressure (3) Professionalism (14) Sportsmanship (1) Temperament (2)

Profile

Coaching Style Democratic
License Continental A
Determination 4
Man Management 8
Motivating 12
Discipline 4
Job Satisfaction
100%
Fatigue
0%
Role Chief Scout
Wage 61.0K p/w
Contract 14.03.2030

Performance

Behaviour Good
Training Effectiveness
36%
Player Development
50%
Injury Prevention
55%
Tactical Implementation
30%

Recent Events

Assessed a player now
Attended a recruitment meeting now
Attended a recruitment meeting now
Assessed a player now
Assessed a player now
Assessed a player 7d ago
Assessed a player 7d ago
Observed a match 7d ago

Currently Monitoring

123
Player Club Status Ability Confidence Watched Last Observed Latest Vote
Hussein Al-Naasan Al Ain Active 87 / 111 40% 1 24.09.2027 -
Eliás Montiel Atlético Madrid Active 130 / 140 40% 1 24.09.2027 -
Esteban de Lima Tacuarembo Active 85 / 102 40% 1 24.09.2027 -
Dayann Methalie Everton Active 138 / 141 40% 2 23.09.2027 -
Jaydee Canvot Liverpool Active 135 / 146 40% 2 23.09.2027 -
Bahia Juventude Active 119 / 115 40% 1 23.09.2027 -
Joel Ezra Enyimba Active 92 / 85 40% 1 22.09.2027 -
Luis Otávio Toronto FC Active 111 / 131 40% 1 22.09.2027 -
Kaick FC Dallas Active 109 / 109 40% 1 22.09.2027 -
Jon Esenga IF Elfsborg Active 106 / 91 40% 1 21.09.2027 -
Matías Argüello Libertad Active 100 / 101 40% 1 21.09.2027 -
Adam Aznou Everton Active 125 / 137 40% 2 20.09.2027 -
Kauã Moraes Cruzeiro Active 129 / 125 40% 1 20.09.2027 -
Frankie Westfield Philadelphia Union Active 99 / 116 40% 1 20.09.2027 -
Lautaro Quiroga Defensa y Justicia Active 111 / 118 40% 1 15.09.2027 -
Felipe Obradovich Gimnasia La Plata Active 101 / 113 40% 1 14.09.2027 -
Azizbek To'lqinbekov Bunyodkor Active 106 / 114 40% 1 14.09.2027 -
Agustín De la Cuesta Argentinos Juniors Active 104 / 120 40% 1 13.09.2027 -
Adrian Skogmar Malmo FF Active 123 / 132 40% 1 13.09.2027 -
Yunus Emre Konak Brentford Active 130 / 127 40% 1 13.09.2027 -
Lucas Velásquez Huachipato Active 88 / 91 40% 2 12.09.2027 -
Axel Tape Bayer Leverkusen Active 122 / 134 40% 1 12.09.2027 -
Felipe Faúndez O'Higgins Active 100 / 104 40% 1 10.09.2027 -
Agustín Medina Lanús Active 120 / 131 40% 1 10.09.2027 -
Jobe Bellingham Borussia Dortmund Active 143 / 141 40% 1 10.09.2027 -
Facundo Balatti Penarol Active 103 / 102 40% 1 08.09.2027 -
Aiden Hezarkhani Real Salt Lake Active 101 / 83 40% 1 08.09.2027 -
Dylan Gorosito Boca Juniors Active 104 / 115 40% 3 28.08.2027 -
Hervin Goyes Deportivo Pasto Active 102 / 103 40% 1 28.08.2027 -
Björn Hedlöf Helsingborg Active 82 / 109 40% 1 28.08.2027 -
Dylan Salvo Defensores Unidos Active 103 / 113 40% 3 20.08.2027 -
Ichem Ferrah Pisa Active 111 / 120 40% 1 20.08.2027 -
Juan David Arizala Udinese Active 131 / 137 40% 1 20.08.2027 -
Felix Mosquera Deportes Quindio Active 90 / 89 40% 2 17.08.2027 -
Diogo Guzmán Montevideo City Torque Active 106 / 123 40% 1 17.08.2027 -
Sascha Britschgi Catanzaro Active 122 / 128 40% 1 17.08.2027 -
Alan Morinigo Olimpia Lost 108 / 121 40% 1 16.08.2027 -
Mattia Puzone Siracusa Active 104 / 98 40% 1 16.08.2027 -
Tommy Watson Brighton Active 131 / 132 40% 4 15.08.2027 -
Lorenzo Venturino Genoa Active 131 / 140 40% 2 15.08.2027 -
Nicolás Azambuja Danubio Lost 110 / 121 40% 1 15.08.2027 -
Amirbek Saidov Bukhara Active 91 / 92 40% 1 11.08.2027 -
Facundo Núñez Liverpool Montevideo Active 98 / 96 40% 1 11.08.2027 -
Andre Harriman-Annous Arsenal Active 98 / 111 40% 2 09.08.2027 -
Donnell McNeilly Nottingham Forest Active 109 / 129 40% 2 09.08.2027 -
Agustín Albarracín Cagliari Active 123 / 118 40% 2 09.08.2027 -
Umar Abubakar Famalicao Active 101 / 92 40% 1 08.08.2027 -
Fabricio Ventresca Deportivo Riestra Active 98 / 107 40% 1 08.08.2027 -
Luighi Palmeiras Active 109 / 112 40% 1 06.08.2027 -
Simone Pafundi Udinese Active 121 / 136 40% 1 06.08.2027 -
Ian Subiabre River Plate Lost 110 / 131 40% 1 06.08.2027 -
Yuval Ranon Vitesse Active 91 / 102 40% 1 05.08.2027 -
Lautaro Gutiérrez Girona Active 103 / 109 40% 3 03.08.2027 -
Tomás Soares Benfica Active 98 / 95 40% 1 03.08.2027 -
Gabriele Biancheri Manchester United Active 101 / 105 40% 1 02.08.2027 -
Maher Carrizo Ajax Active 123 / 134 40% 2 31.07.2027 -
Ceadach O'Neill Arsenal Active 101 / 103 40% 1 31.07.2027 -
Ihojan Pérez Cerro Largo Active 93 / 103 40% 1 30.07.2027 -
Dajaune Brown Derby County Active 97 / 116 40% 1 30.07.2027 -
Babis Kostoulas Aston Villa Active 136 / 140 40% 2 28.07.2027 -
Ricardo Solbes Getafe Active 99 / 105 40% 1 27.07.2027 -
Modou Niang Al Ain Active 98 / 90 40% 2 24.07.2027 -
Richard Ferrington Stabaek Active 91 / 89 40% 1 24.07.2027 -
Inti López River Plate Active 103 / 91 40% 1 23.07.2027 -
Jeremías Reyna Vélez Active 94 / 101 40% 1 23.07.2027 -
Paris Brunner Monaco Active 114 / 124 40% 1 23.07.2027 -
Sindre Walle Egeli Nottingham Forest Active 130 / 131 40% 1 22.07.2027 -
Iker Zufiaurre Boca Juniors Lost 114 / 119 40% 1 20.07.2027 -
Yusuf Akçiçek Al-Hilal Active 117 / 119 40% 3 26.01.2027 -
Ronan Kpakio Brentford Active 117 / 123 40% 1 26.01.2027 -
Tommaso Cecotti Carpi Active 92 / 91 40% 1 26.01.2027 -
Abdelrahman Mano Al Ahly Active 88 / 104 40% 1 15.01.2027 -
Eduardo Felicíssimo Sporting CP Active 106 / 115 40% 1 03.01.2027 -
Konta Ismaily Active 85 / 90 40% 5 01.01.2027 -
Dani Díaz Real Sociedad Active 109 / 112 40% 6 30.12.2026 -
Dramane Kamagaté USM Alger Active 107 / 107 40% 5 29.12.2026 -
Abraham Paintsil Hasaacas Active 90 / 98 40% 1 29.12.2026 -
Roger Fernandes Al-Ittihad Active 125 / 131 40% 7 25.12.2026 -
Darío Ramírez Real Sociedad Active 96 / 101 40% 1 25.12.2026 -
Christos Mouzakitis Hull City Active 131 / 133 40% 3 20.12.2026 -
Samuel Lucero Defensa y Justicia Active 116 / 124 40% 2 18.12.2026 -
Riley Owen Wycombe Wanderers Active 96 / 103 40% 1 18.12.2026 -
João Muniz Sporting CP Active 116 / 128 40% 1 14.12.2026 -
Younes El Bahraoui Al-Taawoun Lost 115 / 104 40% 2 08.12.2026 Needs More Info
Milad Jahanbakhsh Rah Ahan Active 102 / 101 40% 1 07.12.2026 -
Christopher Bonsu Baah Al-Qadisiyah Active 117 / 128 40% 5 05.12.2026 Monitor
Reuell Walters Luton Town Active 115 / 123 40% 12 03.12.2026 -
Tiago Freitas Benfica Active 101 / 121 40% 2 01.12.2026 -
Matías Fernández-Pardo Newcastle United Active 134 / 139 40% 1 01.12.2026 -
Jonathan De Irastorza Levante Active 122 / 124 40% 2 30.11.2026 -
Tomás Aranda Boca Juniors Active 113 / 131 40% 4 29.11.2026 -
Bautista Carboni Defensores Unidos Active 99 / 108 40% 2 26.11.2026 -
Xavier Biscayzacú Sporting CP Active 130 / 134 40% 1 23.11.2026 -
Matías Gómez Valencia Active 118 / 125 40% 3 21.11.2026 -
Louay Trayi Al Wahda Active 100 / 98 40% 4 18.11.2026 -
Zoltan Bese Haladas Active 116 / 109 40% 1 18.11.2026 -
Ahmed Khodary Zamalek Active 91 / 97 40% 6 16.11.2026 -
Gonçalo Moreira Benfica Active 121 / 130 40% 1 12.11.2026 -
Nicolás Ortiz Leganés Active 97 / 118 40% 1 09.11.2026 -
João Simões Sporting CP Active 123 / 135 40% 5 08.11.2026 -
Faisal Al-Abdulwahed Al-Fateh Active 95 / 89 40% 2 02.11.2026 -
João Teixeira Porto Active 108 / 111 40% 1 02.11.2026 -
Daniel Kelly Derby County Active 113 / 125 40% 1 30.10.2026 -
Dramane Koumaré Baniyas Active 90 / 114 40% 1 30.10.2026 -
Juan Velázquez Atlético Madrid Active 122 / 126 40% 3 29.10.2026 -
Santiago Segovia Rosario Central Active 110 / 121 40% 1 29.10.2026 -
Ethan Mbappé LOSC Lille Active 138 / 142 40% 3 24.10.2026 -
Jay Robinson Southampton Active 112 / 131 40% 3 24.10.2026 -
Lander Astiazarán Real Sociedad Active 102 / 115 40% 4 19.10.2026 -
Tobías Andrada Betis Active 115 / 132 40% 1 16.10.2026 -
Jofre Torrents Ajax Lost 114 / 139 40% 2 13.10.2026 -
Mohammed Wakaso Hasaacas Active 101 / 89 40% 1 13.10.2026 -
Hakim Sulemana SJK Active 85 / 100 40% 1 10.10.2026 -
Sergey Pinyaev Lokomotiv Moscow Active 114 / 142 40% 1 10.10.2026 -
Jack Grieves Watford Active 95 / 102 40% 2 05.10.2026 -
Alejo Gelsomino Gimnasia La Plata Active 103 / 113 40% 1 20.09.2026 -
Shane Nti Brighton Active 94 / 109 40% 1 15.09.2026 -
Teun Gijselhart Deportivo La Coruña Active 98 / 108 40% 1 14.09.2026 -
Aboubacar Bah Al-Hazem Active 104 / 117 40% 2 11.09.2026 -
Leandrinho Sharjah Active 108 / 109 40% 1 04.09.2026 -
Lucas Richarte Temperley Active 91 / 103 40% 1 10.08.2026 -
Mateo Muñoz Vélez Active 81 / 95 40% 1 03.08.2026 -
Valentino Massi Sarmiento Active 101 / 100 40% 1 03.08.2026 -